sensor_id;sensor_type;location;lat;lon;timestamp;temperature;humidity
23629;DHT22;11991;57.150;-2.134;2023-03-03T00:01:02;5.30;99.90
23629;DHT22;11991;57.150;-2.134;2023-03-03T00:03:29;5.20;99.90
23629;DHT22;11991;57.150;-2.134;2023-03-03T00:05:57;5.20;99.90
23629;DHT22;11991;57.150;-2.134;2023-03-03T00:08:25;5.20;99.90
23629;DHT22;11991;57.150;-2.134;2023-03-03T00:10:52;5.10;99.90
23629;DHT22;11991;57.150;-2.134;2023-03-03T00:13:23;5.10;99.90
23629;DHT22;11991;57.150;-2.134;2023-03-03T00:15:53;5.00;99.90
23629;DHT22;11991;57.150;-2.134;2023-03-03T00:18:30;5.00;99.90
23629;DHT22;11991;57.150;-2.134;2023-03-03T00:21:01;5.00;99.90
23629;DHT22;11991;57.150;-2.134;2023-03-03T00:23:37;5.00;99.90
23629;DHT22;11991;57.150;-2.134;2023-03-03T00:26:22;4.90;99.90
23629;DHT22;11991;57.150;-2.134;2023-03-03T00:28:52;4.90;99.90
23629;DHT22;11991;57.150;-2.134;2023-03-03T00:31:30;4.90;99.90
23629;DHT22;11991;57.150;-2.134;2023-03-03T00:36:47;4.80;99.90
23629;DHT22;11991;57.150;-2.134;2023-03-03T00:39:35;4.80;99.90
23629;DHT22;11991;57.150;-2.134;2023-03-03T00:42:29;4.80;99.90
23629;DHT22;11991;57.150;-2.134;2023-03-03T00:45:00;4.80;99.90
23629;DHT22;11991;57.150;-2.134;2023-03-03T00:47:37;4.80;99.90
23629;DHT22;11991;57.150;-2.134;2023-03-03T00:52:40;4.70;99.90
23629;DHT22;11991;57.150;-2.134;2023-03-03T00:55:11;4.70;99.90
23629;DHT22;11991;57.150;-2.134;2023-03-03T00:57:38;4.70;99.90
23629;DHT22;11991;57.150;-2.134;2023-03-03T01:00:09;4.80;99.90
23629;DHT22;11991;57.150;-2.134;2023-03-03T01:02:37;4.70;99.90
23629;DHT22;11991;57.150;-2.134;2023-03-03T01:05:05;4.70;99.90
23629;DHT22;11991;57.150;-2.134;2023-03-03T01:07:32;4.70;99.90
23629;DHT22;11991;57.150;-2.134;2023-03-03T01:10:00;4.70;99.90
23629;DHT22;11991;57.150;-2.134;2023-03-03T01:12:28;4.70;99.90
23629;DHT22;11991;57.150;-2.134;2023-03-03T01:14:55;4.70;99.90
23629;DHT22;11991;57.150;-2.134;2023-03-03T01:17:22;4.70;99.90
23629;DHT22;11991;57.150;-2.134;2023-03-03T01:19:49;4.70;99.90
23629;DHT22;11991;57.150;-2.134;2023-03-03T01:22:17;4.70;99.90
23629;DHT22;11991;57.150;-2.134;2023-03-03T01:24:44;4.70;99.90
23629;DHT22;11991;57.150;-2.134;2023-03-03T01:27:11;4.70;99.90
23629;DHT22;11991;57.150;-2.134;2023-03-03T01:29:38;4.70;99.90
23629;DHT22;11991;57.150;-2.134;2023-03-03T01:32:05;4.70;99.90
23629;DHT22;11991;57.150;-2.134;2023-03-03T01:34:33;4.70;99.90
23629;DHT22;11991;57.150;-2.134;2023-03-03T01:37:00;4.70;99.90
23629;DHT22;11991;57.150;-2.134;2023-03-03T01:39:27;4.60;99.90
23629;DHT22;11991;57.150;-2.134;2023-03-03T01:41:54;4.60;99.90
23629;DHT22;11991;57.150;-2.134;2023-03-03T01:44:22;4.60;99.90
23629;DHT22;11991;57.150;-2.134;2023-03-03T01:47:15;4.60;99.90
23629;DHT22;11991;57.150;-2.134;2023-03-03T01:49:55;4.60;99.90
23629;DHT22;11991;57.150;-2.134;2023-03-03T01:52:32;4.60;99.90
23629;DHT22;11991;57.150;-2.134;2023-03-03T01:55:07;4.60;99.90
23629;DHT22;11991;57.150;-2.134;2023-03-03T01:57:39;4.60;99.90
23629;DHT22;11991;57.150;-2.134;2023-03-03T02:00:09;4.60;99.90
23629;DHT22;11991;57.150;-2.134;2023-03-03T02:02:40;4.60;99.90
23629;DHT22;11991;57.150;-2.134;2023-03-03T02:05:09;4.60;99.90
23629;DHT22;11991;57.150;-2.134;2023-03-03T02:07:37;4.60;99.90
23629;DHT22;11991;57.150;-2.134;2023-03-03T02:10:17;4.60;99.90
23629;DHT22;11991;57.150;-2.134;2023-03-03T02:15:21;4.50;99.90
23629;DHT22;11991;57.150;-2.134;2023-03-03T02:17:55;4.50;99.90
23629;DHT22;11991;57.150;-2.134;2023-03-03T02:23:11;4.50;99.90
23629;DHT22;11991;57.150;-2.134;2023-03-03T02:28:30;4.50;99.90
23629;DHT22;11991;57.150;-2.134;2023-03-03T02:31:06;4.50;99.90
23629;DHT22;11991;57.150;-2.134;2023-03-03T02:33:33;4.50;99.90
23629;DHT22;11991;57.150;-2.134;2023-03-03T02:36:01;4.50;99.90
23629;DHT22;11991;57.150;-2.134;2023-03-03T02:38:45;4.50;99.90
23629;DHT22;11991;57.150;-2.134;2023-03-03T02:41:34;4.50;99.90
23629;DHT22;11991;57.150;-2.134;2023-03-03T02:44:10;4.50;99.90
23629;DHT22;11991;57.150;-2.134;2023-03-03T02:46:43;4.50;99.90
23629;DHT22;11991;57.150;-2.134;2023-03-03T02:49:13;4.50;99.90
23629;DHT22;11991;57.150;-2.134;2023-03-03T02:51:41;4.50;99.90
23629;DHT22;11991;57.150;-2.134;2023-03-03T02:54:10;4.50;99.90
23629;DHT22;11991;57.150;-2.134;2023-03-03T02:56:38;4.50;99.90
23629;DHT22;11991;57.150;-2.134;2023-03-03T02:59:06;4.50;99.90
23629;DHT22;11991;57.150;-2.134;2023-03-03T03:01:39;4.50;99.90
23629;DHT22;11991;57.150;-2.134;2023-03-03T03:06:43;4.50;99.90
23629;DHT22;11991;57.150;-2.134;2023-03-03T03:09:12;4.50;99.90
23629;DHT22;11991;57.150;-2.134;2023-03-03T03:11:40;4.50;99.90
23629;DHT22;11991;57.150;-2.134;2023-03-03T03:14:10;4.50;99.90
23629;DHT22;11991;57.150;-2.134;2023-03-03T03:16:39;4.50;99.90
23629;DHT22;11991;57.150;-2.134;2023-03-03T03:19:06;4.50;99.90
23629;DHT22;11991;57.150;-2.134;2023-03-03T03:21:36;4.50;99.90
23629;DHT22;11991;57.150;-2.134;2023-03-03T03:24:05;4.50;99.90
23629;DHT22;11991;57.150;-2.134;2023-03-03T03:26:34;4.50;99.90
23629;DHT22;11991;57.150;-2.134;2023-03-03T03:29:01;4.50;99.90
23629;DHT22;11991;57.150;-2.134;2023-03-03T03:31:30;4.50;99.90
23629;DHT22;11991;57.150;-2.134;2023-03-03T03:33:57;4.50;99.90
23629;DHT22;11991;57.150;-2.134;2023-03-03T03:36:28;4.50;99.90
23629;DHT22;11991;57.150;-2.134;2023-03-03T03:38:55;4.50;99.90
23629;DHT22;11991;57.150;-2.134;2023-03-03T03:41:23;4.50;99.90
23629;DHT22;11991;57.150;-2.134;2023-03-03T03:43:50;4.50;99.90
23629;DHT22;11991;57.150;-2.134;2023-03-03T03:46:17;4.50;99.90
23629;DHT22;11991;57.150;-2.134;2023-03-03T03:48:45;4.60;99.90
23629;DHT22;11991;57.150;-2.134;2023-03-03T03:51:15;4.60;99.90
23629;DHT22;11991;57.150;-2.134;2023-03-03T03:53:43;4.60;99.90
23629;DHT22;11991;57.150;-2.134;2023-03-03T03:56:10;4.60;99.90
23629;DHT22;11991;57.150;-2.134;2023-03-03T03:58:40;4.60;99.90
23629;DHT22;11991;57.150;-2.134;2023-03-03T04:01:09;4.60;99.90
23629;DHT22;11991;57.150;-2.134;2023-03-03T04:03:41;4.60;99.90
23629;DHT22;11991;57.150;-2.134;2023-03-03T04:06:12;4.60;99.90
23629;DHT22;11991;57.150;-2.134;2023-03-03T04:08:40;4.60;99.90
23629;DHT22;11991;57.150;-2.134;2023-03-03T04:11:08;4.60;99.90
23629;DHT22;11991;57.150;-2.134;2023-03-03T04:13:36;4.60;99.90
23629;DHT22;11991;57.150;-2.134;2023-03-03T04:16:06;4.60;99.90
23629;DHT22;11991;57.150;-2.134;2023-03-03T04:18:34;4.60;99.90
23629;DHT22;11991;57.150;-2.134;2023-03-03T04:21:02;4.60;99.90
23629;DHT22;11991;57.150;-2.134;2023-03-03T04:23:30;4.70;99.90
23629;DHT22;11991;57.150;-2.134;2023-03-03T04:25:59;4.70;99.90
23629;DHT22;11991;57.150;-2.134;2023-03-03T04:28:27;4.70;99.90
23629;DHT22;11991;57.150;-2.134;2023-03-03T04:30:54;4.70;99.90
23629;DHT22;11991;57.150;-2.134;2023-03-03T04:33:22;4.70;99.90
23629;DHT22;11991;57.150;-2.134;2023-03-03T04:35:50;4.80;99.90
23629;DHT22;11991;57.150;-2.134;2023-03-03T04:38:18;4.70;99.90
23629;DHT22;11991;57.150;-2.134;2023-03-03T04:40:47;4.80;99.90
23629;DHT22;11991;57.150;-2.134;2023-03-03T04:43:16;4.80;99.90
23629;DHT22;11991;57.150;-2.134;2023-03-03T04:45:43;4.80;99.90
23629;DHT22;11991;57.150;-2.134;2023-03-03T04:48:11;4.80;99.90
23629;DHT22;11991;57.150;-2.134;2023-03-03T04:50:40;4.80;99.90
23629;DHT22;11991;57.150;-2.134;2023-03-03T04:53:07;4.80;99.90
23629;DHT22;11991;57.150;-2.134;2023-03-03T04:55:36;4.80;99.90
23629;DHT22;11991;57.150;-2.134;2023-03-03T04:58:04;4.70;99.90
23629;DHT22;11991;57.150;-2.134;2023-03-03T05:00:32;4.70;99.90
23629;DHT22;11991;57.150;-2.134;2023-03-03T05:03:01;4.70;99.90
23629;DHT22;11991;57.150;-2.134;2023-03-03T05:05:28;4.80;99.90
23629;DHT22;11991;57.150;-2.134;2023-03-03T05:07:55;4.80;99.90
23629;DHT22;11991;57.150;-2.134;2023-03-03T05:10:22;4.80;99.90
23629;DHT22;11991;57.150;-2.134;2023-03-03T05:12:50;4.80;99.90
23629;DHT22;11991;57.150;-2.134;2023-03-03T05:15:17;4.80;99.90
23629;DHT22;11991;57.150;-2.134;2023-03-03T05:17:45;4.80;99.90
23629;DHT22;11991;57.150;-2.134;2023-03-03T05:20:12;4.80;99.90
23629;DHT22;11991;57.150;-2.134;2023-03-03T05:22:40;4.80;99.90
23629;DHT22;11991;57.150;-2.134;2023-03-03T05:25:07;4.80;99.90
23629;DHT22;11991;57.150;-2.134;2023-03-03T05:27:36;4.80;99.90
23629;DHT22;11991;57.150;-2.134;2023-03-03T05:30:04;4.80;99.90
23629;DHT22;11991;57.150;-2.134;2023-03-03T05:32:31;4.80;99.90
23629;DHT22;11991;57.150;-2.134;2023-03-03T05:34:58;4.80;99.90
23629;DHT22;11991;57.150;-2.134;2023-03-03T05:37:26;4.80;99.90
23629;DHT22;11991;57.150;-2.134;2023-03-03T05:39:53;4.80;99.90
23629;DHT22;11991;57.150;-2.134;2023-03-03T05:42:20;4.80;99.90
23629;DHT22;11991;57.150;-2.134;2023-03-03T05:44:47;4.80;99.90
23629;DHT22;11991;57.150;-2.134;2023-03-03T05:47:15;4.80;99.90
23629;DHT22;11991;57.150;-2.134;2023-03-03T05:49:42;4.90;99.90
23629;DHT22;11991;57.150;-2.134;2023-03-03T05:52:09;4.90;99.90
23629;DHT22;11991;57.150;-2.134;2023-03-03T05:54:38;4.80;99.90
23629;DHT22;11991;57.150;-2.134;2023-03-03T05:57:05;4.90;99.90
23629;DHT22;11991;57.150;-2.134;2023-03-03T05:59:32;4.90;99.90
23629;DHT22;11991;57.150;-2.134;2023-03-03T06:01:59;4.90;99.90
23629;DHT22;11991;57.150;-2.134;2023-03-03T06:04:27;4.90;99.90
23629;DHT22;11991;57.150;-2.134;2023-03-03T06:06:54;4.90;99.90
23629;DHT22;11991;57.150;-2.134;2023-03-03T06:09:21;4.90;99.90
23629;DHT22;11991;57.150;-2.134;2023-03-03T06:11:48;4.90;99.90
23629;DHT22;11991;57.150;-2.134;2023-03-03T06:14:15;4.90;99.90
23629;DHT22;11991;57.150;-2.134;2023-03-03T06:16:43;4.90;99.90
23629;DHT22;11991;57.150;-2.134;2023-03-03T06:19:10;4.90;99.90
23629;DHT22;11991;57.150;-2.134;2023-03-03T06:21:37;4.90;99.90
23629;DHT22;11991;57.150;-2.134;2023-03-03T06:24:05;4.90;99.90
23629;DHT22;11991;57.150;-2.134;2023-03-03T06:26:32;4.90;99.90
23629;DHT22;11991;57.150;-2.134;2023-03-03T06:29:00;4.90;99.90
23629;DHT22;11991;57.150;-2.134;2023-03-03T06:31:27;5.00;99.90
23629;DHT22;11991;57.150;-2.134;2023-03-03T06:33:55;5.00;99.90
23629;DHT22;11991;57.150;-2.134;2023-03-03T06:36:22;5.00;99.90
23629;DHT22;11991;57.150;-2.134;2023-03-03T06:38:50;5.00;99.90
23629;DHT22;11991;57.150;-2.134;2023-03-03T06:41:17;5.00;99.90
23629;DHT22;11991;57.150;-2.134;2023-03-03T06:43:44;5.00;99.90
23629;DHT22;11991;57.150;-2.134;2023-03-03T06:46:12;5.00;99.90
23629;DHT22;11991;57.150;-2.134;2023-03-03T06:48:39;5.00;99.90
23629;DHT22;11991;57.150;-2.134;2023-03-03T06:51:34;5.00;99.90
23629;DHT22;11991;57.150;-2.134;2023-03-03T06:54:13;5.00;99.90
23629;DHT22;11991;57.150;-2.134;2023-03-03T06:56:42;5.00;99.90
23629;DHT22;11991;57.150;-2.134;2023-03-03T06:59:19;5.00;99.90
23629;DHT22;11991;57.150;-2.134;2023-03-03T07:01:48;5.00;99.90
23629;DHT22;11991;57.150;-2.134;2023-03-03T07:06:51;5.00;99.90
23629;DHT22;11991;57.150;-2.134;2023-03-03T07:09:22;5.00;99.90
23629;DHT22;11991;57.150;-2.134;2023-03-03T07:11:51;5.00;99.90
23629;DHT22;11991;57.150;-2.134;2023-03-03T07:14:19;5.00;99.90
23629;DHT22;11991;57.150;-2.134;2023-03-03T07:16:54;5.00;99.90
23629;DHT22;11991;57.150;-2.134;2023-03-03T07:19:41;5.00;99.90
23629;DHT22;11991;57.150;-2.134;2023-03-03T07:22:23;5.00;99.90
23629;DHT22;11991;57.150;-2.134;2023-03-03T07:24:53;5.00;99.90
23629;DHT22;11991;57.150;-2.134;2023-03-03T07:27:28;5.00;99.90
23629;DHT22;11991;57.150;-2.134;2023-03-03T07:30:26;5.00;99.90
23629;DHT22;11991;57.150;-2.134;2023-03-03T07:32:56;5.00;99.90
23629;DHT22;11991;57.150;-2.134;2023-03-03T07:35:34;5.00;99.90
23629;DHT22;11991;57.150;-2.134;2023-03-03T07:38:40;5.10;99.90
23629;DHT22;11991;57.150;-2.134;2023-03-03T07:41:13;5.10;99.90
23629;DHT22;11991;57.150;-2.134;2023-03-03T07:44:04;5.10;99.90
23629;DHT22;11991;57.150;-2.134;2023-03-03T07:46:41;5.10;99.90
23629;DHT22;11991;57.150;-2.134;2023-03-03T07:49:33;5.10;99.90
23629;DHT22;11991;57.150;-2.134;2023-03-03T07:52:17;5.20;99.90
23629;DHT22;11991;57.150;-2.134;2023-03-03T07:54:46;5.10;99.90
23629;DHT22;11991;57.150;-2.134;2023-03-03T07:59:49;5.10;99.90
23629;DHT22;11991;57.150;-2.134;2023-03-03T08:02:34;5.10;99.90
23629;DHT22;11991;57.150;-2.134;2023-03-03T08:05:25;5.20;99.90
23629;DHT22;11991;57.150;-2.134;2023-03-03T08:10:53;5.20;99.90
23629;DHT22;11991;57.150;-2.134;2023-03-03T08:13:23;5.20;99.90
23629;DHT22;11991;57.150;-2.134;2023-03-03T08:15:55;5.20;99.90
23629;DHT22;11991;57.150;-2.134;2023-03-03T08:18:46;5.20;99.90
23629;DHT22;11991;57.150;-2.134;2023-03-03T08:21:22;5.30;99.90
23629;DHT22;11991;57.150;-2.134;2023-03-03T08:24:01;5.30;99.90
23629;DHT22;11991;57.150;-2.134;2023-03-03T08:26:28;5.30;99.90
23629;DHT22;11991;57.150;-2.134;2023-03-03T08:28:56;5.30;99.90
23629;DHT22;11991;57.150;-2.134;2023-03-03T08:31:24;5.30;99.90
23629;DHT22;11991;57.150;-2.134;2023-03-03T08:34:07;5.40;99.90
23629;DHT22;11991;57.150;-2.134;2023-03-03T08:36:34;5.40;99.90
23629;DHT22;11991;57.150;-2.134;2023-03-03T08:39:04;5.40;99.90
23629;DHT22;11991;57.150;-2.134;2023-03-03T08:41:56;5.40;99.90
23629;DHT22;11991;57.150;-2.134;2023-03-03T08:44:23;5.50;99.90
23629;DHT22;11991;57.150;-2.134;2023-03-03T08:46:51;5.50;99.90
23629;DHT22;11991;57.150;-2.134;2023-03-03T08:49:18;5.60;99.90
23629;DHT22;11991;57.150;-2.134;2023-03-03T08:51:46;5.60;99.90
23629;DHT22;11991;57.150;-2.134;2023-03-03T08:54:14;5.60;99.90
23629;DHT22;11991;57.150;-2.134;2023-03-03T08:56:41;5.60;99.90
23629;DHT22;11991;57.150;-2.134;2023-03-03T08:59:09;5.50;99.90
23629;DHT22;11991;57.150;-2.134;2023-03-03T09:01:37;5.50;99.90
23629;DHT22;11991;57.150;-2.134;2023-03-03T09:04:04;5.60;99.90
23629;DHT22;11991;57.150;-2.134;2023-03-03T09:06:32;5.60;99.90
23629;DHT22;11991;57.150;-2.134;2023-03-03T09:09:00;5.50;99.90
23629;DHT22;11991;57.150;-2.134;2023-03-03T09:11:28;5.50;99.90
23629;DHT22;11991;57.150;-2.134;2023-03-03T09:14:11;5.50;99.90
23629;DHT22;11991;57.150;-2.134;2023-03-03T09:16:49;5.50;99.90
23629;DHT22;11991;57.150;-2.134;2023-03-03T09:22:00;5.50;99.90
23629;DHT22;11991;57.150;-2.134;2023-03-03T09:24:30;5.50;99.90
23629;DHT22;11991;57.150;-2.134;2023-03-03T09:26:58;5.50;99.90
23629;DHT22;11991;57.150;-2.134;2023-03-03T09:29:32;5.50;99.90
23629;DHT22;11991;57.150;-2.134;2023-03-03T09:34:57;5.50;99.90
23629;DHT22;11991;57.150;-2.134;2023-03-03T09:37:35;5.50;99.90
23629;DHT22;11991;57.150;-2.134;2023-03-03T09:40:34;5.40;99.90
23629;DHT22;11991;57.150;-2.134;2023-03-03T09:51:34;5.50;99.90
23629;DHT22;11991;57.150;-2.134;2023-03-03T09:59:45;5.50;99.90
23629;DHT22;11991;57.150;-2.134;2023-03-03T10:08:02;5.50;99.90
23629;DHT22;11991;57.150;-2.134;2023-03-03T10:11:01;5.50;99.90
23629;DHT22;11991;57.150;-2.134;2023-03-03T10:16:16;5.50;99.90
23629;DHT22;11991;57.150;-2.134;2023-03-03T10:19:02;5.60;99.90
23629;DHT22;11991;57.150;-2.134;2023-03-03T10:24:28;5.60;99.90
23629;DHT22;11991;57.150;-2.134;2023-03-03T10:30:02;5.60;99.90
23629;DHT22;11991;57.150;-2.134;2023-03-03T10:32:46;5.60;99.90
23629;DHT22;11991;57.150;-2.134;2023-03-03T10:55:47;5.80;99.90
23629;DHT22;11991;57.150;-2.134;2023-03-03T11:07:28;5.80;99.90
23629;DHT22;11991;57.150;-2.134;2023-03-03T11:15:43;5.90;99.90
23629;DHT22;11991;57.150;-2.134;2023-03-03T11:26:40;6.00;99.90
23629;DHT22;11991;57.150;-2.134;2023-03-03T11:29:56;6.00;99.90
23629;DHT22;11991;57.150;-2.134;2023-03-03T11:32:40;6.00;99.90
23629;DHT22;11991;57.150;-2.134;2023-03-03T11:35:29;6.00;99.90
23629;DHT22;11991;57.150;-2.134;2023-03-03T11:41:07;6.20;99.90
23629;DHT22;11991;57.150;-2.134;2023-03-03T11:43:43;6.10;99.90
23629;DHT22;11991;57.150;-2.134;2023-03-03T11:46:21;6.10;99.90
23629;DHT22;11991;57.150;-2.134;2023-03-03T11:49:32;6.10;99.90
23629;DHT22;11991;57.150;-2.134;2023-03-03T11:57:34;6.20;99.90
23629;DHT22;11991;57.150;-2.134;2023-03-03T12:00:22;6.30;99.90
23629;DHT22;11991;57.150;-2.134;2023-03-03T12:08:14;6.50;99.90
23629;DHT22;11991;57.150;-2.134;2023-03-03T12:26:15;6.70;99.90
23629;DHT22;11991;57.150;-2.134;2023-03-03T12:28:54;6.60;99.90
23629;DHT22;11991;57.150;-2.134;2023-03-03T12:36:57;6.50;99.90
23629;DHT22;11991;57.150;-2.134;2023-03-03T12:42:09;6.60;99.90
23629;DHT22;11991;57.150;-2.134;2023-03-03T12:45:17;6.60;99.90
23629;DHT22;11991;57.150;-2.134;2023-03-03T12:47:59;6.60;99.90
23629;DHT22;11991;57.150;-2.134;2023-03-03T13:12:22;6.70;99.90
23629;DHT22;11991;57.150;-2.134;2023-03-03T13:15:17;6.60;99.90
23629;DHT22;11991;57.150;-2.134;2023-03-03T13:27:02;6.60;99.90
23629;DHT22;11991;57.150;-2.134;2023-03-03T13:32:14;6.70;99.90
23629;DHT22;11991;57.150;-2.134;2023-03-03T13:34:59;6.70;99.90
23629;DHT22;11991;57.150;-2.134;2023-03-03T13:37:29;6.70;99.90
23629;DHT22;11991;57.150;-2.134;2023-03-03T13:39:59;6.70;99.90
23629;DHT22;11991;57.150;-2.134;2023-03-03T13:43:14;6.70;99.90
23629;DHT22;11991;57.150;-2.134;2023-03-03T13:45:48;6.70;99.90
23629;DHT22;11991;57.150;-2.134;2023-03-03T13:50:56;6.70;99.90
23629;DHT22;11991;57.150;-2.134;2023-03-03T13:53:50;6.70;99.90
23629;DHT22;11991;57.150;-2.134;2023-03-03T14:05:37;6.60;99.90
23629;DHT22;11991;57.150;-2.134;2023-03-03T14:11:47;6.50;99.90
23629;DHT22;11991;57.150;-2.134;2023-03-03T14:14:37;6.60;99.90
23629;DHT22;11991;57.150;-2.134;2023-03-03T14:17:30;6.60;99.90
23629;DHT22;11991;57.150;-2.134;2023-03-03T14:25:12;6.50;99.90
23629;DHT22;11991;57.150;-2.134;2023-03-03T14:27:57;6.50;99.90
23629;DHT22;11991;57.150;-2.134;2023-03-03T14:30:35;6.50;99.90
23629;DHT22;11991;57.150;-2.134;2023-03-03T14:35:37;6.40;99.90
23629;DHT22;11991;57.150;-2.134;2023-03-03T14:40:37;6.50;99.90
23629;DHT22;11991;57.150;-2.134;2023-03-03T14:43:22;6.50;99.90
23629;DHT22;11991;57.150;-2.134;2023-03-03T14:45:51;6.50;99.90
23629;DHT22;11991;57.150;-2.134;2023-03-03T14:48:22;6.60;99.90
23629;DHT22;11991;57.150;-2.134;2023-03-03T14:50:59;6.60;99.90
23629;DHT22;11991;57.150;-2.134;2023-03-03T14:53:44;6.60;99.90
23629;DHT22;11991;57.150;-2.134;2023-03-03T14:56:25;6.50;99.90
23629;DHT22;11991;57.150;-2.134;2023-03-03T14:59:16;6.50;99.90
23629;DHT22;11991;57.150;-2.134;2023-03-03T15:01:45;6.40;99.90
23629;DHT22;11991;57.150;-2.134;2023-03-03T15:06:48;6.50;99.90
23629;DHT22;11991;57.150;-2.134;2023-03-03T15:09:32;6.50;99.90
23629;DHT22;11991;57.150;-2.134;2023-03-03T15:12:20;6.50;99.90
23629;DHT22;11991;57.150;-2.134;2023-03-03T15:14:52;6.40;99.90
23629;DHT22;11991;57.150;-2.134;2023-03-03T15:20:17;6.40;99.90
23629;DHT22;11991;57.150;-2.134;2023-03-03T15:26:09;6.40;99.90
23629;DHT22;11991;57.150;-2.134;2023-03-03T15:34:34;6.30;99.90
23629;DHT22;11991;57.150;-2.134;2023-03-03T15:53:47;6.40;99.90
23629;DHT22;11991;57.150;-2.134;2023-03-03T16:01:56;6.40;99.90
23629;DHT22;11991;57.150;-2.134;2023-03-03T16:04:33;6.40;99.90
23629;DHT22;11991;57.150;-2.134;2023-03-03T16:07:17;6.30;99.90
23629;DHT22;11991;57.150;-2.134;2023-03-03T16:23:49;6.30;99.90
23629;DHT22;11991;57.150;-2.134;2023-03-03T16:26:48;6.20;99.90
23629;DHT22;11991;57.150;-2.134;2023-03-03T16:29:45;6.20;99.90
23629;DHT22;11991;57.150;-2.134;2023-03-03T16:32:33;6.20;99.90
23629;DHT22;11991;57.150;-2.134;2023-03-03T16:35:30;6.10;99.90
23629;DHT22;11991;57.150;-2.134;2023-03-03T16:40:44;6.10;99.90
23629;DHT22;11991;57.150;-2.134;2023-03-03T16:45:58;6.20;99.90
23629;DHT22;11991;57.150;-2.134;2023-03-03T16:48:53;6.20;99.90
23629;DHT22;11991;57.150;-2.134;2023-03-03T16:51:33;6.20;99.90
23629;DHT22;11991;57.150;-2.134;2023-03-03T17:00:22;6.10;99.90
23629;DHT22;11991;57.150;-2.134;2023-03-03T17:03:34;6.10;99.90
23629;DHT22;11991;57.150;-2.134;2023-03-03T17:05:55;6.10;99.90
23629;DHT22;11991;57.150;-2.134;2023-03-03T17:17:06;6.00;99.90
23629;DHT22;11991;57.150;-2.134;2023-03-03T17:22:44;6.00;99.90
23629;DHT22;11991;57.150;-2.134;2023-03-03T17:25:45;6.00;99.90
23629;DHT22;11991;57.150;-2.134;2023-03-03T17:28:34;6.00;99.90
23629;DHT22;11991;57.150;-2.134;2023-03-03T17:33:50;6.00;99.90
23629;DHT22;11991;57.150;-2.134;2023-03-03T17:36:48;5.90;99.90
23629;DHT22;11991;57.150;-2.134;2023-03-03T17:42:28;5.90;99.90
23629;DHT22;11991;57.150;-2.134;2023-03-03T17:45:09;5.90;99.90
23629;DHT22;11991;57.150;-2.134;2023-03-03T17:55:37;5.90;99.90
23629;DHT22;11991;57.150;-2.134;2023-03-03T18:15:07;6.00;99.90
23629;DHT22;11991;57.150;-2.134;2023-03-03T18:23:38;6.00;99.90
23629;DHT22;11991;57.150;-2.134;2023-03-03T18:26:37;6.00;99.90
23629;DHT22;11991;57.150;-2.134;2023-03-03T18:36:57;6.00;99.90
23629;DHT22;11991;57.150;-2.134;2023-03-03T18:44:43;5.90;99.90
23629;DHT22;11991;57.150;-2.134;2023-03-03T18:47:11;5.90;99.90
23629;DHT22;11991;57.150;-2.134;2023-03-03T18:49:51;6.00;99.90
23629;DHT22;11991;57.150;-2.134;2023-03-03T18:52:22;6.00;99.90
23629;DHT22;11991;57.150;-2.134;2023-03-03T18:57:36;5.90;99.90
23629;DHT22;11991;57.150;-2.134;2023-03-03T19:00:26;6.00;99.90
23629;DHT22;11991;57.150;-2.134;2023-03-03T19:02:56;6.00;99.90
23629;DHT22;11991;57.150;-2.134;2023-03-03T19:05:46;6.00;99.90
23629;DHT22;11991;57.150;-2.134;2023-03-03T19:16:53;6.00;99.90
23629;DHT22;11991;57.150;-2.134;2023-03-03T19:19:31;6.00;99.90
23629;DHT22;11991;57.150;-2.134;2023-03-03T19:22:20;6.00;99.90
23629;DHT22;11991;57.150;-2.134;2023-03-03T19:36:19;6.00;99.90
23629;DHT22;11991;57.150;-2.134;2023-03-03T19:39:10;6.00;99.90
23629;DHT22;11991;57.150;-2.134;2023-03-03T19:47:50;6.00;99.90
23629;DHT22;11991;57.150;-2.134;2023-03-03T19:53:49;5.90;99.90
23629;DHT22;11991;57.150;-2.134;2023-03-03T20:05:18;5.90;99.90
23629;DHT22;11991;57.150;-2.134;2023-03-03T20:08:08;5.90;99.90
23629;DHT22;11991;57.150;-2.134;2023-03-03T20:10:56;5.90;99.90
23629;DHT22;11991;57.150;-2.134;2023-03-03T20:13:38;5.90;99.90
23629;DHT22;11991;57.150;-2.134;2023-03-03T20:21:32;6.00;99.90
23629;DHT22;11991;57.150;-2.134;2023-03-03T20:27:17;6.00;99.90
23629;DHT22;11991;57.150;-2.134;2023-03-03T20:32:50;6.00;99.90
23629;DHT22;11991;57.150;-2.134;2023-03-03T20:35:38;6.00;99.90
23629;DHT22;11991;57.150;-2.134;2023-03-03T20:46:40;5.90;99.90
23629;DHT22;11991;57.150;-2.134;2023-03-03T20:54:33;5.70;99.90
23629;DHT22;11991;57.150;-2.134;2023-03-03T20:57:27;5.70;99.90
23629;DHT22;11991;57.150;-2.134;2023-03-03T21:00:11;5.60;99.90
23629;DHT22;11991;57.150;-2.134;2023-03-03T21:03:00;5.60;99.90
23629;DHT22;11991;57.150;-2.134;2023-03-03T21:05:29;5.60;99.90
23629;DHT22;11991;57.150;-2.134;2023-03-03T21:08:01;5.50;99.90
23629;DHT22;11991;57.150;-2.134;2023-03-03T21:10:31;5.60;99.90
23629;DHT22;11991;57.150;-2.134;2023-03-03T21:13:26;5.50;99.90
23629;DHT22;11991;57.150;-2.134;2023-03-03T21:18:35;5.50;99.90
23629;DHT22;11991;57.150;-2.134;2023-03-03T21:21:03;5.50;99.90
23629;DHT22;11991;57.150;-2.134;2023-03-03T21:23:31;5.40;99.90
23629;DHT22;11991;57.150;-2.134;2023-03-03T21:25:58;5.40;99.90
23629;DHT22;11991;57.150;-2.134;2023-03-03T21:28:30;5.30;99.90
23629;DHT22;11991;57.150;-2.134;2023-03-03T21:31:15;5.30;99.90
23629;DHT22;11991;57.150;-2.134;2023-03-03T21:33:57;5.30;99.90
23629;DHT22;11991;57.150;-2.134;2023-03-03T21:39:00;5.30;99.90
23629;DHT22;11991;57.150;-2.134;2023-03-03T21:47:00;5.20;99.90
23629;DHT22;11991;57.150;-2.134;2023-03-03T21:49:27;5.10;99.90
23629;DHT22;11991;57.150;-2.134;2023-03-03T21:51:55;5.10;99.90
23629;DHT22;11991;57.150;-2.134;2023-03-03T21:54:22;5.00;99.90
23629;DHT22;11991;57.150;-2.134;2023-03-03T21:56:50;5.00;99.90
23629;DHT22;11991;57.150;-2.134;2023-03-03T21:59:18;4.90;99.90
23629;DHT22;11991;57.150;-2.134;2023-03-03T22:01:45;4.90;99.90
23629;DHT22;11991;57.150;-2.134;2023-03-03T22:04:13;4.90;99.90
23629;DHT22;11991;57.150;-2.134;2023-03-03T22:06:40;4.80;99.90
23629;DHT22;11991;57.150;-2.134;2023-03-03T22:09:08;4.80;99.90
23629;DHT22;11991;57.150;-2.134;2023-03-03T22:11:35;4.80;99.90
23629;DHT22;11991;57.150;-2.134;2023-03-03T22:14:03;4.80;99.90
23629;DHT22;11991;57.150;-2.134;2023-03-03T22:16:30;4.70;99.90
23629;DHT22;11991;57.150;-2.134;2023-03-03T22:18:57;4.70;99.90
23629;DHT22;11991;57.150;-2.134;2023-03-03T22:21:28;4.60;99.90
23629;DHT22;11991;57.150;-2.134;2023-03-03T22:23:56;4.60;99.90
23629;DHT22;11991;57.150;-2.134;2023-03-03T22:26:24;4.60;99.90
23629;DHT22;11991;57.150;-2.134;2023-03-03T22:28:51;4.50;99.90
23629;DHT22;11991;57.150;-2.134;2023-03-03T22:31:18;4.50;99.90
23629;DHT22;11991;57.150;-2.134;2023-03-03T22:33:47;4.50;99.90
23629;DHT22;11991;57.150;-2.134;2023-03-03T22:36:15;4.40;99.90
23629;DHT22;11991;57.150;-2.134;2023-03-03T22:38:42;4.40;99.90
23629;DHT22;11991;57.150;-2.134;2023-03-03T22:41:09;4.40;99.90
23629;DHT22;11991;57.150;-2.134;2023-03-03T22:43:36;4.30;99.90
23629;DHT22;11991;57.150;-2.134;2023-03-03T22:46:04;4.30;99.90
23629;DHT22;11991;57.150;-2.134;2023-03-03T22:48:31;4.30;99.90
23629;DHT22;11991;57.150;-2.134;2023-03-03T22:50:58;4.30;99.90